createdAt,value
2018-07-04T00:01:30.347Z,18.90
2018-07-04T00:04:10.655Z,18.90
2018-07-04T00:06:51.307Z,18.80
2018-07-04T00:09:31.591Z,18.70
2018-07-04T00:12:12.078Z,18.60
2018-07-04T00:14:52.547Z,18.60
2018-07-04T00:17:32.995Z,18.50
2018-07-04T00:20:13.387Z,18.50
2018-07-04T00:22:53.814Z,18.40
2018-07-04T00:25:34.589Z,18.40
2018-07-04T00:28:14.832Z,18.40
2018-07-04T00:30:55.180Z,18.30
2018-07-04T00:33:35.455Z,18.30
2018-07-04T00:36:15.835Z,18.30
2018-07-04T00:38:56.402Z,18.20
2018-07-04T00:41:36.764Z,18.20
2018-07-04T00:44:17.202Z,18.20
2018-07-04T00:46:57.688Z,18.20
2018-07-04T00:49:38.116Z,18.20
2018-07-04T00:52:18.660Z,18.20
2018-07-04T00:54:59.046Z,18.10
2018-07-04T00:57:39.367Z,18.10
2018-07-04T01:00:19.662Z,18.10
2018-07-04T01:03:00.159Z,18.10
2018-07-04T01:05:40.618Z,18.10
2018-07-04T01:08:21.119Z,18.10
2018-07-04T01:11:01.531Z,18.00
2018-07-04T01:13:42.006Z,18.00
2018-07-04T01:16:22.281Z,18.00
2018-07-04T01:19:02.801Z,18.00
2018-07-04T01:21:43.192Z,18.00
2018-07-04T01:24:23.595Z,18.00
2018-07-04T01:27:03.971Z,17.90
2018-07-04T01:29:44.135Z,17.90
2018-07-04T01:32:24.668Z,17.90
2018-07-04T01:35:05.107Z,17.80
2018-07-04T01:37:45.638Z,17.80
2018-07-04T01:40:26.175Z,17.80
2018-07-04T01:43:06.479Z,17.80
2018-07-04T01:45:47.024Z,17.80
2018-07-04T01:48:27.513Z,17.80
2018-07-04T01:51:07.810Z,17.80
2018-07-04T01:53:48.285Z,17.70
2018-07-04T01:56:28.598Z,17.60
2018-07-04T01:59:08.951Z,17.60
2018-07-04T02:01:49.302Z,17.60
2018-07-04T02:04:29.553Z,17.60
2018-07-04T02:07:10.043Z,17.50
2018-07-04T02:09:50.230Z,17.50
2018-07-04T02:12:30.859Z,17.40
2018-07-04T02:15:11.174Z,17.40
2018-07-04T02:17:51.610Z,17.40
2018-07-04T02:20:32.051Z,17.30
2018-07-04T02:23:12.491Z,17.30
2018-07-04T02:25:52.775Z,17.20
2018-07-04T02:28:33.018Z,17.20
2018-07-04T02:31:13.416Z,17.10
2018-07-04T02:33:53.630Z,17.10
2018-07-04T02:36:33.918Z,17.10
2018-07-04T02:39:14.496Z,17.00
2018-07-04T02:41:54.821Z,17.00
2018-07-04T02:44:35.095Z,16.90
2018-07-04T02:47:20.968Z,16.90
2018-07-04T02:50:01.374Z,16.90
2018-07-04T02:52:41.824Z,16.90
2018-07-04T02:55:22.258Z,17.00
2018-07-04T02:58:02.631Z,17.00
2018-07-04T03:00:42.929Z,17.00
2018-07-04T03:03:23.217Z,17.00
2018-07-04T03:06:03.514Z,17.00
2018-07-04T03:08:43.769Z,17.00
2018-07-04T03:11:24.121Z,17.00
2018-07-04T03:14:04.276Z,17.00
2018-07-04T03:16:44.643Z,16.90
2018-07-04T03:19:25.100Z,16.90
2018-07-04T03:22:05.592Z,16.80
2018-07-04T03:24:45.954Z,16.90
2018-07-04T03:27:26.293Z,16.90
2018-07-04T03:30:06.698Z,16.90
2018-07-04T03:32:47.230Z,17.00
2018-07-04T03:35:27.679Z,17.00
2018-07-04T03:38:08.048Z,17.00
2018-07-04T03:40:48.503Z,16.90
2018-07-04T03:43:29.011Z,17.00
2018-07-04T03:46:09.269Z,17.00
2018-07-04T03:48:49.813Z,17.10
2018-07-04T03:51:30.095Z,17.10
2018-07-04T03:54:10.566Z,17.10
2018-07-04T03:56:50.954Z,17.20
2018-07-04T03:59:31.274Z,17.20
2018-07-04T04:02:11.699Z,17.30
2018-07-04T04:04:52.002Z,17.30
2018-07-04T04:07:32.310Z,17.30
2018-07-04T04:10:12.575Z,17.40
2018-07-04T04:12:53.238Z,17.40
2018-07-04T04:15:33.555Z,17.40
2018-07-04T04:18:14.083Z,17.50
2018-07-04T04:20:54.512Z,17.50
2018-07-04T04:23:34.731Z,17.50
2018-07-04T04:26:15.198Z,17.50
2018-07-04T04:28:55.654Z,17.60
2018-07-04T04:31:36.033Z,17.70
2018-07-04T04:34:16.331Z,17.80
2018-07-04T04:36:56.778Z,17.90
2018-07-04T04:39:37.156Z,18.00
2018-07-04T04:42:17.419Z,18.10
2018-07-04T04:44:57.772Z,18.20
2018-07-04T04:47:38.879Z,18.30
2018-07-04T04:50:19.215Z,18.40
2018-07-04T04:52:59.447Z,18.50
2018-07-04T04:55:39.934Z,18.60
2018-07-04T04:58:20.052Z,18.70
2018-07-04T05:01:00.396Z,18.70
2018-07-04T05:03:40.685Z,18.80
2018-07-04T05:06:21.143Z,18.90
2018-07-04T05:09:01.631Z,19.00
2018-07-04T05:11:42.055Z,19.10
2018-07-04T05:14:22.663Z,19.20
2018-07-04T05:17:03.166Z,19.40
2018-07-04T05:19:43.439Z,19.40
2018-07-04T05:22:23.851Z,19.50
2018-07-04T05:25:04.207Z,19.50
2018-07-04T05:27:44.394Z,19.60
2018-07-04T05:30:24.867Z,19.70
2018-07-04T05:33:05.150Z,19.80
2018-07-04T05:35:45.430Z,19.90
2018-07-04T05:38:25.800Z,20.10
2018-07-04T05:41:06.419Z,20.20
2018-07-04T05:43:46.771Z,20.30
2018-07-04T05:46:27.053Z,20.30
2018-07-04T05:49:07.332Z,20.40
2018-07-04T05:51:47.799Z,20.50
2018-07-04T05:54:28.087Z,20.60
2018-07-04T05:57:08.405Z,20.60
2018-07-04T05:59:48.727Z,20.70
2018-07-04T06:02:29.100Z,20.90
2018-07-04T06:05:09.302Z,21.00
2018-07-04T06:07:49.629Z,21.10
2018-07-04T06:10:29.969Z,21.20
2018-07-04T06:15:44.671Z,21.40
2018-07-04T06:18:25.087Z,21.60
2018-07-04T06:21:05.376Z,21.70
2018-07-04T06:23:49.996Z,21.70
2018-07-04T06:26:30.951Z,21.70
2018-07-04T06:29:11.336Z,21.80
2018-07-04T06:31:52.409Z,21.80
2018-07-04T06:34:33.160Z,21.90
2018-07-04T06:37:13.861Z,22.10
2018-07-04T06:39:41.788Z,22.30
2018-07-04T06:42:09.913Z,22.40
2018-07-04T06:44:37.827Z,22.50
2018-07-04T06:47:05.784Z,22.60
2018-07-04T06:49:33.702Z,22.70
2018-07-04T06:52:01.643Z,22.90
2018-07-04T06:54:29.675Z,23.10
2018-07-04T06:56:57.753Z,23.20
2018-07-04T06:59:25.713Z,23.20
2018-07-04T07:01:53.703Z,23.40
2018-07-04T07:04:34.177Z,23.50
2018-07-04T07:07:14.614Z,23.60
2018-07-04T07:09:54.855Z,23.60
2018-07-04T07:12:35.289Z,23.70
2018-07-04T07:15:15.619Z,23.80
2018-07-04T07:17:55.966Z,23.90
2018-07-04T07:20:36.199Z,24.00
2018-07-04T07:23:16.512Z,23.90
2018-07-04T07:25:56.677Z,23.90
2018-07-04T07:28:37.174Z,24.00
2018-07-04T07:31:17.664Z,24.00
2018-07-04T07:33:58.089Z,24.10
2018-07-04T07:36:38.524Z,24.20
2018-07-04T07:39:19.100Z,24.20
2018-07-04T07:41:59.332Z,24.30
2018-07-04T07:44:42.548Z,24.30
2018-07-04T07:47:22.701Z,24.40
2018-07-04T07:50:03.087Z,24.50
2018-07-04T07:52:43.510Z,24.60
2018-07-04T07:55:23.743Z,24.70
2018-07-04T07:58:04.249Z,24.80
2018-07-04T08:00:44.498Z,24.90
2018-07-04T08:03:24.859Z,24.80
2018-07-04T08:06:05.607Z,25.00
2018-07-04T08:08:46.132Z,25.10
2018-07-04T08:11:26.350Z,25.00
2018-07-04T08:14:06.716Z,25.10
2018-07-04T08:16:46.847Z,25.30
2018-07-04T08:22:01.205Z,25.60
2018-07-04T08:24:41.472Z,25.70
2018-07-04T08:27:21.633Z,25.80
2018-07-04T08:30:01.880Z,25.80
2018-07-04T08:32:42.241Z,25.80
2018-07-04T08:35:22.570Z,25.90
2018-07-04T08:38:02.899Z,25.80
2018-07-04T08:40:43.640Z,25.90
2018-07-04T08:43:24.118Z,25.90
2018-07-04T08:46:04.482Z,25.90
2018-07-04T08:48:44.973Z,26.00
2018-07-04T08:51:25.438Z,26.00
2018-07-04T08:54:05.572Z,26.00
2018-07-04T08:56:45.990Z,26.00
2018-07-04T08:59:26.391Z,26.20
2018-07-04T09:02:06.798Z,26.30
2018-07-04T09:04:46.984Z,26.40
2018-07-04T09:07:27.307Z,26.50
2018-07-04T09:10:07.839Z,26.50
2018-07-04T09:12:48.265Z,26.50
2018-07-04T09:15:28.754Z,26.50
2018-07-04T09:18:09.209Z,26.40
2018-07-04T09:20:49.783Z,26.50
2018-07-04T09:23:30.501Z,26.50
2018-07-04T09:26:11.732Z,26.60
2018-07-04T09:28:51.960Z,26.70
2018-07-04T09:34:06.489Z,26.70
2018-07-04T09:36:46.931Z,26.80
2018-07-04T09:39:27.172Z,26.70
2018-07-04T09:42:07.494Z,26.70
2018-07-04T09:44:47.867Z,26.80
2018-07-04T09:47:28.068Z,26.90
2018-07-04T09:50:08.345Z,27.10
2018-07-04T09:52:48.564Z,27.20
2018-07-04T09:58:03.254Z,27.10
2018-07-04T10:00:49.212Z,27.20
2018-07-04T10:03:29.567Z,27.30
2018-07-04T10:06:09.740Z,27.50
2018-07-04T10:08:50.529Z,27.50
2018-07-04T10:11:30.880Z,27.60
2018-07-04T10:14:12.011Z,27.50
2018-07-04T10:16:52.181Z,27.60
2018-07-04T10:19:32.463Z,27.80
2018-07-04T10:22:12.875Z,28.00
2018-07-04T10:24:53.125Z,28.20
2018-07-04T10:27:33.639Z,28.00
2018-07-04T10:30:14.033Z,28.20
2018-07-04T10:32:54.707Z,28.40
2018-07-04T10:35:35.303Z,28.30
2018-07-04T10:38:15.843Z,28.30
2018-07-04T10:40:56.327Z,28.40
2018-07-04T10:43:36.549Z,28.60
2018-07-04T10:46:17.015Z,28.80
2018-07-04T10:48:57.439Z,28.90
2018-07-04T10:51:37.963Z,29.10
2018-07-04T10:54:18.561Z,28.90
2018-07-04T10:56:58.875Z,28.80
2018-07-04T10:59:39.289Z,28.50
2018-07-04T11:02:19.703Z,28.40
2018-07-04T11:05:00.484Z,28.40
2018-07-04T11:07:41.011Z,28.50
2018-07-04T11:10:21.311Z,28.60
2018-07-04T11:13:01.618Z,28.60
2018-07-04T11:15:41.982Z,28.60
2018-07-04T11:18:22.181Z,28.80
2018-07-04T11:21:02.490Z,28.90
2018-07-04T11:23:42.815Z,29.00
2018-07-04T11:26:23.355Z,28.90
2018-07-04T11:29:03.970Z,29.10
2018-07-04T11:31:45.103Z,29.20
2018-07-04T11:34:25.458Z,29.40
2018-07-04T11:37:05.967Z,29.60
2018-07-04T11:39:46.267Z,29.60
2018-07-04T11:42:26.795Z,29.50
2018-07-04T11:45:07.115Z,29.60
2018-07-04T11:47:35.022Z,29.70
2018-07-04T11:50:02.925Z,29.40
2018-07-04T11:52:30.914Z,29.40
2018-07-04T11:54:58.798Z,29.60
2018-07-04T11:57:27.799Z,29.50
2018-07-04T11:59:55.970Z,29.70
2018-07-04T12:02:24.040Z,29.90
2018-07-04T12:05:04.530Z,30.10
2018-07-04T12:07:32.452Z,30.30
2018-07-04T12:10:00.369Z,30.60
2018-07-04T12:12:28.298Z,31.00
2018-07-04T12:14:56.267Z,32.80
2018-07-04T12:17:24.226Z,34.50
2018-07-04T12:19:52.149Z,35.80
2018-07-04T12:22:20.089Z,37.30
2018-07-04T12:24:47.962Z,39.10
2018-07-04T12:27:16.075Z,40.70
2018-07-04T12:29:43.960Z,42.70
2018-07-04T12:32:11.999Z,43.90
2018-07-04T12:34:39.883Z,44.80
2018-07-04T12:37:07.840Z,43.50
2018-07-04T12:39:35.810Z,44.80
2018-07-04T12:42:03.798Z,45.00
2018-07-04T12:44:31.674Z,46.10
2018-07-04T12:46:59.690Z,46.90
2018-07-04T12:51:56.755Z,48.50
2018-07-04T12:54:30.176Z,48.70
2018-07-04T12:59:44.730Z,48.90
2018-07-04T13:02:25.186Z,47.80
2018-07-04T13:05:05.631Z,48.00
2018-07-04T13:07:46.202Z,45.70
2018-07-04T13:10:26.641Z,46.90
2018-07-04T13:13:07.133Z,47.20
2018-07-04T13:15:47.363Z,46.80
2018-07-04T13:21:01.747Z,46.60
2018-07-04T13:23:42.134Z,46.40
2018-07-04T13:26:22.510Z,46.40
2018-07-04T13:29:02.835Z,45.20
2018-07-04T13:31:43.448Z,45.60
2018-07-04T13:34:23.859Z,45.60
2018-07-04T13:37:04.477Z,45.40
2018-07-04T13:39:44.634Z,45.40
2018-07-04T13:42:25.055Z,44.60
2018-07-04T13:45:05.520Z,43.30
2018-07-04T13:47:45.939Z,41.80
2018-07-04T13:50:26.216Z,43.20
2018-07-04T13:53:06.803Z,43.70
2018-07-04T13:55:47.128Z,43.80
2018-07-04T13:58:27.575Z,43.50
2018-07-04T14:01:07.737Z,44.00
2018-07-04T14:03:48.279Z,44.40
2018-07-04T14:06:28.663Z,44.00
2018-07-04T14:09:09.113Z,44.50
2018-07-04T14:11:49.588Z,45.20
2018-07-04T14:14:30.087Z,45.00
2018-07-04T14:17:10.453Z,46.90
2018-07-04T14:19:50.707Z,46.30
2018-07-04T14:22:31.299Z,45.00
2018-07-04T14:25:11.672Z,45.00
2018-07-04T14:27:52.235Z,44.80
2018-07-04T14:30:32.398Z,43.80
2018-07-04T14:33:12.819Z,43.10
2018-07-04T14:35:53.163Z,42.10
2018-07-04T14:41:07.574Z,43.00
2018-07-04T14:43:47.912Z,43.40
2018-07-04T14:46:28.199Z,44.30
2018-07-04T14:49:08.577Z,44.80
2018-07-04T14:51:48.962Z,45.20
2018-07-04T14:54:29.274Z,45.60
2018-07-04T14:57:09.531Z,44.50
2018-07-04T14:59:49.951Z,44.80
2018-07-04T15:02:30.535Z,45.10
2018-07-04T15:05:10.917Z,43.30
2018-07-04T15:07:51.267Z,42.40
2018-07-04T15:10:31.831Z,43.40
2018-07-04T15:13:12.260Z,44.20
2018-07-04T15:15:52.887Z,44.00
2018-07-04T15:18:33.335Z,42.90
2018-07-04T15:21:13.754Z,43.20
2018-07-04T15:23:54.563Z,43.20
2018-07-04T15:26:35.215Z,43.90
2018-07-04T15:29:15.607Z,42.90
2018-07-04T15:31:55.787Z,42.10
2018-07-04T15:34:36.048Z,42.90
2018-07-04T15:37:16.455Z,42.60
2018-07-04T15:39:56.861Z,42.60
2018-07-04T15:42:37.121Z,42.30
2018-07-04T15:45:17.676Z,42.40
2018-07-04T15:47:57.948Z,40.80
2018-07-04T15:50:38.264Z,41.50
2018-07-04T15:53:18.594Z,41.60
2018-07-04T15:55:58.847Z,40.50
2018-07-04T15:58:39.142Z,40.60
2018-07-04T16:01:19.599Z,41.50
2018-07-04T16:03:59.806Z,42.20
2018-07-04T16:06:43.870Z,41.70
2018-07-04T16:09:25.151Z,41.90
2018-07-04T16:12:05.452Z,41.80
2018-07-04T16:14:45.908Z,41.50
2018-07-04T16:17:26.115Z,42.30
2018-07-04T16:20:06.517Z,42.20
2018-07-04T16:22:46.955Z,42.70
2018-07-04T16:25:28.267Z,42.20
2018-07-04T16:28:08.499Z,42.20
2018-07-04T16:30:49.004Z,41.80
2018-07-04T16:33:29.039Z,41.10
2018-07-04T16:36:09.611Z,40.60
2018-07-04T16:38:49.974Z,41.00
2018-07-04T16:41:30.299Z,41.30
2018-07-04T16:44:10.583Z,41.70
2018-07-04T16:46:50.844Z,41.70
2018-07-04T16:49:31.159Z,41.40
2018-07-04T16:52:11.558Z,40.90
2018-07-04T16:54:51.811Z,40.10
2018-07-04T16:57:32.249Z,39.90
2018-07-04T17:00:12.712Z,39.80
2018-07-04T17:02:53.097Z,40.20
2018-07-04T17:05:33.474Z,40.70
2018-07-04T17:08:13.735Z,41.40
2018-07-04T17:10:54.295Z,41.10
2018-07-04T17:13:34.698Z,40.60
2018-07-04T17:16:14.903Z,40.70
2018-07-04T17:18:55.209Z,40.60
2018-07-04T17:21:35.580Z,40.60
2018-07-04T17:24:15.762Z,40.80
2018-07-04T17:26:56.263Z,40.60
2018-07-04T17:29:36.498Z,40.60
2018-07-04T17:32:16.926Z,40.60
2018-07-04T17:34:57.376Z,40.00
2018-07-04T17:37:37.929Z,39.00
2018-07-04T17:40:18.251Z,38.20
2018-07-04T17:42:58.693Z,38.10
2018-07-04T17:45:39.124Z,38.50
2018-07-04T17:48:19.785Z,38.90
2018-07-04T17:51:00.354Z,39.10
2018-07-04T17:53:40.668Z,39.00
2018-07-04T17:56:21.240Z,39.10
2018-07-04T17:59:01.751Z,38.60
2018-07-04T18:01:42.115Z,38.90
2018-07-04T18:04:22.431Z,39.10
2018-07-04T18:07:03.198Z,38.60
2018-07-04T18:09:43.707Z,38.10
2018-07-04T18:12:24.184Z,38.10
2018-07-04T18:15:04.513Z,37.90
2018-07-04T18:17:44.921Z,38.10
2018-07-04T18:20:25.283Z,37.60
2018-07-04T18:23:05.662Z,37.50
2018-07-04T18:25:45.939Z,37.50
2018-07-04T18:28:26.226Z,37.70
2018-07-04T18:31:06.595Z,37.90
2018-07-04T18:33:46.943Z,38.00
2018-07-04T18:36:27.310Z,38.00
2018-07-04T18:39:07.684Z,38.00
2018-07-04T18:41:48.111Z,37.50
2018-07-04T18:44:28.599Z,37.40
2018-07-04T18:47:09.088Z,37.00
2018-07-04T18:49:49.329Z,36.60
2018-07-04T18:52:29.818Z,36.10
2018-07-04T18:55:10.286Z,35.80
2018-07-04T18:57:50.755Z,35.30
2018-07-04T19:00:31.267Z,34.90
2018-07-04T19:03:11.684Z,34.40
2018-07-04T19:05:52.078Z,33.90
2018-07-04T19:08:32.453Z,33.40
2018-07-04T19:11:12.859Z,32.80
2018-07-04T19:13:53.320Z,32.30
2018-07-04T19:16:33.857Z,32.00
2018-07-04T19:19:14.240Z,31.50
2018-07-04T19:21:54.720Z,31.10
2018-07-04T19:24:35.030Z,30.80
2018-07-04T19:27:15.409Z,30.40
2018-07-04T19:29:55.707Z,30.00
2018-07-04T19:32:36.108Z,29.70
2018-07-04T19:35:16.615Z,29.40
2018-07-04T19:37:57.234Z,29.10
2018-07-04T19:40:37.539Z,28.80
2018-07-04T19:43:18.020Z,28.50
2018-07-04T19:45:58.322Z,28.30
2018-07-04T19:48:38.847Z,28.10
2018-07-04T19:51:19.183Z,27.90
2018-07-04T19:56:33.707Z,27.40
2018-07-04T19:59:14.238Z,27.10
2018-07-04T20:01:54.574Z,27.00
2018-07-04T20:04:35.001Z,26.80
2018-07-04T20:07:15.363Z,26.60
2018-07-04T20:09:55.443Z,26.40
2018-07-04T20:12:35.780Z,26.30
2018-07-04T20:15:16.055Z,26.20
2018-07-04T20:20:30.750Z,26.00
2018-07-04T20:25:45.306Z,26.00
2018-07-04T20:28:25.690Z,25.90
2018-07-04T20:31:05.862Z,25.90
2018-07-04T20:33:46.225Z,25.80
2018-07-04T20:36:26.764Z,25.70
2018-07-04T20:39:07.386Z,25.70
2018-07-04T20:41:47.762Z,25.60
2018-07-04T20:44:28.131Z,25.50
2018-07-04T20:47:08.458Z,25.50
2018-07-04T20:49:48.842Z,25.40
2018-07-04T20:52:29.126Z,25.40
2018-07-04T20:55:09.625Z,25.20
2018-07-04T20:57:50.063Z,25.20
2018-07-04T21:00:30.832Z,25.10
2018-07-04T21:03:11.086Z,25.00
2018-07-04T21:05:51.230Z,24.90
2018-07-04T21:08:31.788Z,24.80
2018-07-04T21:11:15.983Z,24.80
2018-07-04T21:13:58.100Z,24.70
2018-07-04T21:16:38.750Z,24.60
2018-07-04T21:19:19.224Z,24.60
2018-07-04T21:21:59.695Z,24.50
2018-07-04T21:24:40.087Z,24.50
2018-07-04T21:27:20.508Z,24.40
2018-07-04T21:30:00.866Z,24.40
2018-07-04T21:32:41.270Z,24.30
2018-07-04T21:35:21.567Z,24.30
2018-07-04T21:38:01.997Z,24.20
2018-07-04T21:40:42.453Z,24.10
2018-07-04T21:43:22.763Z,24.10
2018-07-04T21:46:03.219Z,24.00
2018-07-04T21:48:43.690Z,23.90
2018-07-04T21:51:23.970Z,23.90
2018-07-04T21:54:04.417Z,23.80
2018-07-04T21:56:44.879Z,23.70
2018-07-04T21:59:25.274Z,23.60
2018-07-04T22:02:05.679Z,23.50
2018-07-04T22:04:46.076Z,23.50
2018-07-04T22:07:26.523Z,23.40
2018-07-04T22:10:06.932Z,23.40
2018-07-04T22:12:47.292Z,23.30
2018-07-04T22:15:27.582Z,23.30
2018-07-04T22:18:07.867Z,23.20
2018-07-04T22:20:48.179Z,23.20
2018-07-04T22:23:28.439Z,23.10
2018-07-04T22:26:08.735Z,23.10
2018-07-04T22:28:49.162Z,23.10
2018-07-04T22:31:29.512Z,23.00
2018-07-04T22:34:09.834Z,23.00
2018-07-04T22:36:50.162Z,22.90
2018-07-04T22:39:30.754Z,22.90
2018-07-04T22:42:11.166Z,22.90
2018-07-04T22:44:51.687Z,22.80
2018-07-04T22:47:32.146Z,22.70
2018-07-04T22:50:12.682Z,22.70
2018-07-04T22:52:53.022Z,22.60
2018-07-04T22:55:33.526Z,22.50
2018-07-04T22:58:13.998Z,22.40
2018-07-04T23:00:54.238Z,22.40
2018-07-04T23:03:34.557Z,22.30
2018-07-04T23:06:14.986Z,22.30
2018-07-04T23:08:55.422Z,22.20
2018-07-04T23:11:35.935Z,22.10
2018-07-04T23:14:16.251Z,22.10
2018-07-04T23:16:56.520Z,22.00
2018-07-04T23:19:36.975Z,22.00
2018-07-04T23:22:17.345Z,21.90
2018-07-04T23:24:57.703Z,21.80
2018-07-04T23:27:37.905Z,21.70
2018-07-04T23:30:18.556Z,21.60
2018-07-04T23:32:58.834Z,21.60
2018-07-04T23:35:39.265Z,21.50
2018-07-04T23:38:19.662Z,21.50
2018-07-04T23:41:00.182Z,21.50
2018-07-04T23:43:41.118Z,21.50
2018-07-04T23:46:21.462Z,21.50
2018-07-04T23:49:01.754Z,21.50
2018-07-04T23:51:42.242Z,21.40
2018-07-04T23:54:22.662Z,21.30
2018-07-04T23:57:03.201Z,21.20
2018-07-04T23:59:43.696Z,21.20
